Time;durP1;ratioP1;P1;durP2;ratioP2;P2;SDS_P1;SDS_P2;PMS_P1;PMS_P2;Temp;Humidity;BMP_temperature;BMP_pressure;BME280_temperature;BME280_humidity;BME280_pressure;Samples;Min_cycle;Max_cycle;Signal;HPM_P1;HPM_P2
2022/11/28 00:02:20;;;;;;;6.30;2.98;;;;;;;;;;1740674;81;21053;-62
2022/11/28 00:04:48;;;;;;;4.95;3.30;;;;;;;;;;1728896;82;21071;-62
2022/11/28 00:07:14;;;;;;;3.80;2.33;;;;;;;;;;1736906;82;21137;-63
2022/11/28 00:09:40;;;;;;;3.72;2.30;;;;;;;;;;1740892;81;21095;-62
2022/11/28 00:12:06;;;;;;;3.83;2.83;;;;;;;;;;1709225;84;21051;-62
2022/11/28 00:14:33;;;;;;;3.45;2.60;;;;;;;;;;1708786;83;21161;-62
2022/11/28 00:16:59;;;;;;;2.47;2.10;;;;;;;;;;1696222;82;21107;-62
2022/11/28 00:19:27;;;;;;;3.42;2.30;;;;;;;;;;1703052;84;21114;-62
2022/11/28 00:21:54;;;;;;;4.50;2.70;;;;;;;;;;1711788;83;21032;-62
2022/11/28 00:24:20;;;;;;;5.17;2.95;;;;;;;;;;1725810;82;21071;-63
2022/11/28 00:26:46;;;;;;;3.95;3.05;;;;;;;;;;1680170;84;21084;-64
2022/11/28 00:29:13;;;;;;;5.58;2.58;;;;;;;;;;1713464;82;21065;-62
2022/11/28 00:31:41;;;;;;;4.70;2.60;;;;;;;;;;1707898;82;21027;-63
2022/11/28 00:34:08;;;;;;;5.30;3.20;;;;;;;;;;1695366;84;21252;-61
2022/11/28 00:36:34;;;;;;;5.80;3.20;;;;;;;;;;1699181;83;21000;-62
2022/11/28 00:39:01;;;;;;;4.00;3.08;;;;;;;;;;1724205;83;21103;-61
2022/11/28 00:41:29;;;;;;;4.37;2.65;;;;;;;;;;1687794;84;21540;-61
2022/11/28 00:43:55;;;;;;;4.40;2.70;;;;;;;;;;1704306;84;21545;-61
2022/11/28 06:15:31;;;;;;;6.97;4.90;;;;;;;;;;1800814;77;22209;-62
2022/11/28 06:17:57;;;;;;;7.30;4.65;;;;;;;;;;1787109;79;20953;-62
2022/11/28 06:20:23;;;;;;;7.40;4.17;;;;;;;;;;1789284;79;21063;-62
2022/11/28 06:22:49;;;;;;;6.35;4.42;;;;;;;;;;1779133;79;21000;-63
2022/11/28 06:25:16;;;;;;;7.67;4.58;;;;;;;;;;1778935;79;21057;-63
2022/11/28 06:27:41;;;;;;;7.45;4.45;;;;;;;;;;1785388;79;21558;-63
2022/11/28 06:30:08;;;;;;;7.55;4.25;;;;;;;;;;1782514;79;22181;-64
2022/11/28 06:32:34;;;;;;;6.75;4.10;;;;;;;;;;1757226;80;21087;-65
2022/11/28 06:35:01;;;;;;;7.55;4.72;;;;;;;;;;1773741;80;21107;-63
2022/11/28 06:37:27;;;;;;;6.37;4.47;;;;;;;;;;1784551;80;21012;-64
2022/11/28 06:39:53;;;;;;;6.80;4.50;;;;;;;;;;1787944;80;21017;-65
2022/11/28 06:42:20;;;;;;;7.03;4.45;;;;;;;;;;1790223;79;22198;-63
2022/11/28 06:44:46;;;;;;;9.98;4.80;;;;;;;;;;1787188;79;20996;-63
2022/11/28 06:47:12;;;;;;;7.60;4.72;;;;;;;;;;1786210;79;21032;-63
2022/11/28 06:49:38;;;;;;;8.55;5.45;;;;;;;;;;1788393;80;21071;-63
2022/11/28 06:52:04;;;;;;;8.93;5.15;;;;;;;;;;1783931;79;21020;-63
2022/11/28 06:54:31;;;;;;;9.85;5.60;;;;;;;;;;1793550;79;21496;-63
2022/11/28 06:56:57;;;;;;;9.93;5.47;;;;;;;;;;1792443;80;21559;-63
2022/11/28 06:59:23;;;;;;;10.05;5.50;;;;;;;;;;1792501;80;21028;-63
2022/11/28 07:01:49;;;;;;;9.55;5.97;;;;;;;;;;1792553;80;21063;-63
2022/11/28 07:04:16;;;;;;;8.80;5.90;;;;;;;;;;1788161;80;21099;-63
2022/11/28 07:06:43;;;;;;;8.05;5.40;;;;;;;;;;1764384;80;21607;-63
2022/11/28 07:09:10;;;;;;;9.73;5.08;;;;;;;;;;1776397;81;21048;-63
2022/11/28 07:11:36;;;;;;;20.52;11.00;;;;;;;;;;1776921;81;21068;-63
2022/11/28 07:14:02;;;;;;;15.03;8.10;;;;;;;;;;1745767;81;21033;-62
2022/11/28 07:16:30;;;;;;;11.55;6.25;;;;;;;;;;1767758;81;21525;-62
2022/11/28 07:18:56;;;;;;;11.93;5.80;;;;;;;;;;1769508;81;20993;-62
2022/11/28 07:21:22;;;;;;;9.85;5.53;;;;;;;;;;1769123;81;21056;-63
2022/11/28 07:23:50;;;;;;;12.10;6.17;;;;;;;;;;1752832;81;21061;-62
2022/11/28 07:26:16;;;;;;;19.15;9.90;;;;;;;;;;1719851;82;21616;-62
2022/11/28 07:28:43;;;;;;;17.27;9.35;;;;;;;;;;1719704;83;21030;-62
2022/11/28 07:31:13;;;;;;;15.23;8.40;;;;;;;;;;1719781;83;21013;-62
2022/11/28 07:33:39;;;;;;;16.42;9.18;;;;;;;;;;1754989;80;21057;-62
2022/11/28 07:36:06;;;;;;;18.35;8.93;;;;;;;;;;1769107;80;21528;-64
2022/11/28 07:38:32;;;;;;;14.53;7.85;;;;;;;;;;1766604;80;21523;-64
2022/11/28 07:41:03;;;;;;;19.15;9.83;;;;;;;;;;1745390;81;20994;-64
2022/11/28 07:43:30;;;;;;;20.75;10.35;;;;;;;;;;1736059;81;21563;-64
2022/11/28 07:45:56;;;;;;;17.73;8.40;;;;;;;;;;1761477;81;21052;-64
2022/11/28 07:48:22;;;;;;;17.07;9.30;;;;;;;;;;1760319;80;21020;-62
2022/11/28 07:50:48;;;;;;;13.88;7.67;;;;;;;;;;1763699;80;21025;-63
2022/11/28 07:53:15;;;;;;;16.85;8.90;;;;;;;;;;1778049;80;21088;-62
2022/11/28 07:55:42;;;;;;;14.03;7.53;;;;;;;;;;1762923;80;21048;-62
2022/11/28 07:58:08;;;;;;;15.95;7.83;;;;;;;;;;1756476;80;21045;-62
2022/11/28 08:00:35;;;;;;;17.20;8.90;;;;;;;;;;1764782;80;21068;-62
2022/11/28 08:03:01;;;;;;;18.62;10.08;;;;;;;;;;1772454;80;20998;-63
2022/11/28 08:05:27;;;;;;;15.65;8.60;;;;;;;;;;1767755;80;21520;-63
2022/11/28 08:07:53;;;;;;;21.48;10.95;;;;;;;;;;1764421;80;21016;-63
2022/11/28 08:10:19;;;;;;;14.70;8.90;;;;;;;;;;1768695;80;21053;-62
2022/11/28 08:12:47;;;;;;;11.43;7.33;;;;;;;;;;1766521;80;21063;-62
2022/11/28 08:15:13;;;;;;;15.23;9.10;;;;;;;;;;1765783;80;21014;-64
2022/11/28 08:17:40;;;;;;;18.55;10.72;;;;;;;;;;1764635;80;21194;-63
2022/11/28 08:20:07;;;;;;;18.92;8.63;;;;;;;;;;1755977;80;21053;-63
2022/11/28 08:22:33;;;;;;;19.55;10.72;;;;;;;;;;1762113;80;21011;-63
2022/11/28 08:24:59;;;;;;;17.23;8.53;;;;;;;;;;1769853;80;20997;-63
2022/11/28 08:27:25;;;;;;;15.40;8.73;;;;;;;;;;1768722;80;21587;-63
2022/11/28 08:29:52;;;;;;;15.55;7.60;;;;;;;;;;1774777;80;21051;-63
2022/11/28 08:32:19;;;;;;;15.38;7.55;;;;;;;;;;1768449;80;21001;-64
2022/11/28 08:34:45;;;;;;;18.05;8.08;;;;;;;;;;1754241;80;21507;-63
2022/11/28 08:37:11;;;;;;;15.00;7.75;;;;;;;;;;1767682;80;21022;-63
2022/11/28 08:39:37;;;;;;;17.45;9.80;;;;;;;;;;1766287;80;21045;-63
2022/11/28 08:42:04;;;;;;;24.18;10.78;;;;;;;;;;1764003;80;21037;-62
2022/11/28 08:44:30;;;;;;;25.02;12.90;;;;;;;;;;1767042;80;21001;-63
2022/11/28 08:46:56;;;;;;;37.73;18.07;;;;;;;;;;1773670;80;21089;-63
2022/11/28 08:49:22;;;;;;;22.00;11.30;;;;;;;;;;1755799;80;21002;-65
2022/11/28 08:51:48;;;;;;;25.70;11.08;;;;;;;;;;1759042;80;21489;-63
2022/11/28 08:54:14;;;;;;;21.73;11.10;;;;;;;;;;1773989;80;21080;-63
2022/11/28 08:56:41;;;;;;;23.73;11.38;;;;;;;;;;1770393;80;21060;-63
2022/11/28 08:59:08;;;;;;;23.55;11.65;;;;;;;;;;1756288;80;21045;-62
2022/11/28 09:01:34;;;;;;;18.10;9.33;;;;;;;;;;1758036;80;21052;-62
2022/11/28 09:04:00;;;;;;;20.40;10.50;;;;;;;;;;1763808;80;21108;-63
2022/11/28 09:06:26;;;;;;;20.30;9.55;;;;;;;;;;1760544;80;21044;-65
2022/11/28 09:08:53;;;;;;;20.90;9.08;;;;;;;;;;1768126;80;21493;-63
2022/11/28 09:11:19;;;;;;;24.45;9.45;;;;;;;;;;1753240;80;21016;-63
2022/11/28 09:13:46;;;;;;;24.20;9.65;;;;;;;;;;1764781;80;21094;-62
2022/11/28 09:16:12;;;;;;;17.15;10.13;;;;;;;;;;1767685;80;21521;-63
2022/11/28 09:18:38;;;;;;;19.48;10.08;;;;;;;;;;1760401;80;21076;-62
2022/11/28 09:21:09;;;;;;;22.60;11.78;;;;;;;;;;1765362;80;21020;-63
2022/11/28 09:23:36;;;;;;;24.55;12.28;;;;;;;;;;1763767;80;21009;-63
2022/11/28 09:26:09;;;;;;;25.40;12.60;;;;;;;;;;1767160;80;21053;-63
2022/11/28 09:28:35;;;;;;;24.30;12.37;;;;;;;;;;1759305;81;21040;-63
2022/11/28 09:31:01;;;;;;;25.30;12.80;;;;;;;;;;1765207;80;21590;-63
2022/11/28 09:33:28;;;;;;;22.93;11.10;;;;;;;;;;1777786;80;21089;-63
2022/11/28 09:35:54;;;;;;;22.15;10.30;;;;;;;;;;1776527;80;21036;-63
2022/11/28 09:38:22;;;;;;;19.20;10.32;;;;;;;;;;1773422;80;21052;-62
2022/11/28 09:40:49;;;;;;;15.80;8.05;;;;;;;;;;1767575;80;21059;-62
2022/11/28 09:56:11;;;;;;;22.62;10.75;;;;;;;;;;1816391;77;22163;-64
2022/11/28 09:58:49;;;;;;;14.63;8.48;;;;;;;;;;1776550;79;21024;-64
2022/11/28 10:01:34;;;;;;;18.62;9.58;;;;;;;;;;1774801;80;21038;-63
2022/11/28 10:04:02;;;;;;;21.35;9.85;;;;;;;;;;1773120;78;21555;-63
2022/11/28 10:06:30;;;;;;;20.10;10.63;;;;;;;;;;1776395;79;20997;-64
2022/11/28 10:09:03;;;;;;;19.50;10.45;;;;;;;;;;1756471;80;21032;-63
2022/11/28 10:11:31;;;;;;;21.27;10.30;;;;;;;;;;1775460;78;21010;-62
2022/11/28 10:14:16;;;;;;;20.52;11.48;;;;;;;;;;1776606;80;21079;-62
2022/11/28 10:16:47;;;;;;;25.40;12.03;;;;;;;;;;1777614;78;21005;-62
2022/11/28 10:19:15;;;;;;;24.72;12.80;;;;;;;;;;1773807;78;22151;-63
2022/11/28 10:21:43;;;;;;;31.48;14.40;;;;;;;;;;1774815;80;21110;-63
2022/11/28 10:24:25;;;;;;;20.90;10.82;;;;;;;;;;1780605;78;21482;-63
2022/11/28 10:26:53;;;;;;;23.07;12.23;;;;;;;;;;1775381;80;21067;-61
2022/11/28 10:29:24;;;;;;;18.00;8.95;;;;;;;;;;1776600;80;21056;-62
2022/11/28 10:31:51;;;;;;;20.57;11.22;;;;;;;;;;1779087;80;21067;-61
2022/11/28 10:34:31;;;;;;;22.75;11.08;;;;;;;;;;1773787;80;21477;-62
2022/11/28 10:37:02;;;;;;;20.60;10.75;;;;;;;;;;1776818;78;21002;-62
2022/11/28 10:39:28;;;;;;;30.32;13.83;;;;;;;;;;1779812;80;21006;-62
2022/11/28 10:42:13;;;;;;;29.50;13.85;;;;;;;;;;1771353;80;21013;-62
2022/11/28 10:44:56;;;;;;;23.25;10.45;;;;;;;;;;1770137;80;21591;-61
2022/11/28 10:47:24;;;;;;;21.80;11.53;;;;;;;;;;1781832;80;21060;-62
2022/11/28 10:50:01;;;;;;;20.40;9.73;;;;;;;;;;1780095;80;21029;-63
2022/11/28 10:52:35;;;;;;;20.02;10.23;;;;;;;;;;1784290;78;21014;-64
2022/11/28 10:55:09;;;;;;;19.90;11.10;;;;;;;;;;1777862;79;20974;-65
2022/11/28 10:57:39;;;;;;;19.23;9.98;;;;;;;;;;1774026;80;20985;-65
2022/11/28 11:00:13;;;;;;;19.48;10.03;;;;;;;;;;1779813;78;21005;-64
2022/11/28 11:02:50;;;;;;;18.48;10.55;;;;;;;;;;1782117;80;21682;-66
2022/11/28 11:05:19;;;;;;;20.72;10.78;;;;;;;;;;1777231;80;21543;-65
2022/11/28 11:07:47;;;;;;;18.60;10.68;;;;;;;;;;1771403;80;21013;-65
2022/11/28 11:10:15;;;;;;;15.58;8.88;;;;;;;;;;1771554;79;20993;-66
2022/11/28 11:12:42;;;;;;;21.80;11.38;;;;;;;;;;1771758;80;21452;-64
2022/11/28 11:15:28;;;;;;;35.78;15.83;;;;;;;;;;1772257;80;21057;-66
2022/11/28 11:17:55;;;;;;;18.82;8.68;;;;;;;;;;1776641;80;21544;-64
2022/11/28 11:20:23;;;;;;;13.43;9.03;;;;;;;;;;1775072;80;20988;-66
2022/11/28 11:22:56;;;;;;;18.17;8.50;;;;;;;;;;1771220;80;22084;-66
2022/11/28 11:25:23;;;;;;;15.25;8.58;;;;;;;;;;1774202;80;21667;-66
2022/11/28 11:27:56;;;;;;;20.32;11.08;;;;;;;;;;1783755;78;21641;-66
2022/11/28 11:30:28;;;;;;;17.87;9.40;;;;;;;;;;1775132;80;21088;-66
2022/11/28 11:32:55;;;;;;;14.50;9.93;;;;;;;;;;1770824;78;21042;-66
2022/11/28 11:35:23;;;;;;;21.52;10.58;;;;;;;;;;1777995;78;20966;-65
2022/11/28 11:37:49;;;;;;;16.40;9.23;;;;;;;;;;1782876;79;20970;-66
2022/11/28 11:40:20;;;;;;;17.92;9.03;;;;;;;;;;1771241;80;21029;-66
2022/11/28 11:42:54;;;;;;;17.12;8.93;;;;;;;;;;1773711;80;20945;-66
2022/11/28 11:45:20;;;;;;;;;;;;;;;;;;1781524;79;21101;-66
2022/11/28 11:47:46;;;;;;;16.65;9.30;;;;;;;;;;1774750;80;20182;-65
2022/11/28 11:50:16;;;;;;;15.13;8.48;;;;;;;;;;1775508;80;21599;-65
2022/11/28 11:52:42;;;;;;;14.43;8.15;;;;;;;;;;1770052;80;21327;-66
2022/11/28 11:55:13;;;;;;;14.80;8.40;;;;;;;;;;1773970;78;21491;-64
2022/11/28 11:57:41;;;;;;;15.60;7.97;;;;;;;;;;1724020;82;21051;-64
2022/11/28 12:00:26;;;;;;;17.50;9.13;;;;;;;;;;1722402;83;21043;-65
2022/11/28 12:02:59;;;;;;;14.43;8.80;;;;;;;;;;1713684;83;21081;-65
2022/11/28 12:05:27;;;;;;;10.00;6.30;;;;;;;;;;1718512;83;21616;-65
2022/11/28 12:07:55;;;;;;;13.25;7.62;;;;;;;;;;1715861;83;20981;-66
2022/11/28 12:10:41;;;;;;;12.80;7.72;;;;;;;;;;1720365;82;21562;-66
2022/11/28 12:13:09;;;;;;;12.65;7.78;;;;;;;;;;1734837;82;21064;-65
2022/11/28 12:15:37;;;;;;;14.07;7.47;;;;;;;;;;1729111;82;20995;-66
2022/11/28 12:18:11;;;;;;;15.32;6.97;;;;;;;;;;1734104;82;21027;-66
2022/11/28 12:20:42;;;;;;;9.88;6.60;;;;;;;;;;1726910;82;21025;-66
2022/11/28 12:23:17;;;;;;;10.98;6.90;;;;;;;;;;1735123;82;21049;-66
2022/11/28 12:25:44;;;;;;;10.82;6.78;;;;;;;;;;1731735;82;21029;-68
2022/11/28 12:28:12;;;;;;;10.58;6.72;;;;;;;;;;1730562;82;21053;-66
2022/11/28 12:30:53;;;;;;;9.20;6.45;;;;;;;;;;1727473;82;21024;-68
2022/11/28 12:33:33;;;;;;;11.83;6.25;;;;;;;;;;1728751;82;21019;-67
2022/11/28 12:36:01;;;;;;;13.35;6.80;;;;;;;;;;1731223;82;21053;-66
2022/11/28 12:38:41;;;;;;;11.03;6.92;;;;;;;;;;1726876;82;21060;-66
2022/11/28 12:41:11;;;;;;;12.55;7.40;;;;;;;;;;1731755;82;21591;-65
2022/11/28 12:43:54;;;;;;;13.48;7.15;;;;;;;;;;1691716;82;21013;-66
2022/11/28 12:46:23;;;;;;;13.88;8.28;;;;;;;;;;1732152;82;21100;-65
2022/11/28 12:48:57;;;;;;;12.30;7.33;;;;;;;;;;1729898;82;21119;-65
2022/11/28 12:51:24;;;;;;;12.28;7.65;;;;;;;;;;1718754;82;21042;-66
2022/11/28 12:53:52;;;;;;;16.42;9.45;;;;;;;;;;1724305;82;21022;-65
2022/11/28 12:56:23;;;;;;;15.83;8.70;;;;;;;;;;1722678;82;21032;-65
2022/11/28 12:58:57;;;;;;;17.42;9.78;;;;;;;;;;1723352;82;21055;-65
2022/11/28 13:01:29;;;;;;;16.75;9.80;;;;;;;;;;1718853;82;21086;-65
2022/11/28 13:04:04;;;;;;;17.62;10.20;;;;;;;;;;1699225;82;21008;-66
2022/11/28 13:06:33;;;;;;;21.25;11.43;;;;;;;;;;1720041;82;21451;-66
2022/11/28 13:09:15;;;;;;;21.20;10.40;;;;;;;;;;1718523;82;21043;-67
2022/11/28 13:11:43;;;;;;;15.68;8.10;;;;;;;;;;1721876;82;22309;-66
2022/11/28 13:14:11;;;;;;;21.20;11.45;;;;;;;;;;1723175;82;21098;-65
2022/11/28 13:16:40;;;;;;;19.67;10.45;;;;;;;;;;1719951;81;21047;-66
2022/11/28 13:19:20;;;;;;;22.02;11.12;;;;;;;;;;1717961;82;21051;-64
2022/11/28 13:22:07;;;;;;;24.05;12.50;;;;;;;;;;1720176;82;21530;-64
2022/11/28 13:24:38;;;;;;;18.98;10.28;;;;;;;;;;1720947;82;21098;-64
2022/11/28 13:27:12;;;;;;;18.35;9.60;;;;;;;;;;1727496;81;21567;-64
2022/11/28 13:29:43;;;;;;;19.10;9.50;;;;;;;;;;1724645;82;21087;-64
2022/11/28 13:32:11;;;;;;;17.20;9.43;;;;;;;;;;1718864;82;21050;-63
2022/11/28 13:34:38;;;;;;;17.12;9.50;;;;;;;;;;1716913;81;21011;-64
2022/11/28 13:37:08;;;;;;;22.07;11.38;;;;;;;;;;1719862;82;21596;-64
2022/11/28 13:39:36;;;;;;;21.85;11.10;;;;;;;;;;1718784;82;21012;-64
2022/11/28 13:42:11;;;;;;;19.20;9.30;;;;;;;;;;1730825;82;21035;-65
2022/11/28 13:44:42;;;;;;;19.27;9.60;;;;;;;;;;1713393;82;21051;-64
2022/11/28 13:47:12;;;;;;;15.30;9.20;;;;;;;;;;1720811;82;21024;-64
2022/11/28 13:49:38;;;;;;;20.62;9.10;;;;;;;;;;1718742;82;21470;-64
2022/11/28 13:52:06;;;;;;;18.55;8.75;;;;;;;;;;1723127;81;21353;-64
2022/11/28 13:54:33;;;;;;;16.70;7.92;;;;;;;;;;1716141;82;21028;-64
2022/11/28 13:57:07;;;;;;;15.85;8.00;;;;;;;;;;1720562;81;21117;-64
2022/11/28 13:59:33;;;;;;;13.43;7.60;;;;;;;;;;1725496;82;21501;-64
2022/11/28 14:02:00;;;;;;;14.10;8.05;;;;;;;;;;1724942;82;20938;-64
2022/11/28 14:04:26;;;;;;;13.88;7.90;;;;;;;;;;1760748;79;20962;-65
2022/11/28 14:06:57;;;;;;;14.30;7.50;;;;;;;;;;1766291;79;21020;-65
2022/11/28 14:09:25;;;;;;;14.45;7.72;;;;;;;;;;1762298;79;21056;-65
2022/11/28 14:11:53;;;;;;;17.30;8.48;;;;;;;;;;1764261;79;21073;-65
2022/11/28 14:14:27;;;;;;;18.45;8.40;;;;;;;;;;1768059;79;21079;-65
2022/11/28 14:16:56;;;;;;;12.37;6.78;;;;;;;;;;1764046;79;21575;-65
2022/11/28 14:19:40;;;;;;;14.63;7.80;;;;;;;;;;1763654;79;21067;-65
2022/11/28 14:22:26;;;;;;;14.58;8.00;;;;;;;;;;1766821;79;21571;-66
2022/11/28 14:24:55;;;;;;;15.28;8.05;;;;;;;;;;1761873;79;21009;-66
2022/11/28 14:27:23;;;;;;;17.52;9.18;;;;;;;;;;1764530;79;21068;-66
2022/11/28 14:29:49;;;;;;;16.40;9.03;;;;;;;;;;1766208;79;20985;-66
2022/11/28 14:32:26;;;;;;;30.97;15.83;;;;;;;;;;1763020;79;21099;-65
2022/11/28 14:34:53;;;;;;;17.95;9.33;;;;;;;;;;1761082;79;21028;-67
2022/11/28 14:37:24;;;;;;;18.12;9.48;;;;;;;;;;1764475;79;20978;-65
2022/11/28 14:39:49;;;;;;;19.23;8.40;;;;;;;;;;1760132;81;21014;-65
2022/11/28 14:42:18;;;;;;;20.88;9.35;;;;;;;;;;1761793;80;20986;-65
2022/11/28 14:44:49;;;;;;;19.12;10.43;;;;;;;;;;1757988;81;21135;-65
2022/11/28 14:47:22;;;;;;;17.05;9.18;;;;;;;;;;1763843;81;20997;-65
2022/11/28 14:49:49;;;;;;;18.07;9.40;;;;;;;;;;1761880;81;21030;-65
2022/11/28 14:52:19;;;;;;;17.37;8.95;;;;;;;;;;1729356;81;20997;-65
2022/11/28 14:54:46;;;;;;;18.50;9.68;;;;;;;;;;1745848;80;21536;-65
2022/11/28 14:57:18;;;;;;;19.52;10.38;;;;;;;;;;1764123;80;21082;-65
2022/11/28 14:59:45;;;;;;;14.25;8.05;;;;;;;;;;1768663;79;21075;-66
2022/11/28 15:02:13;;;;;;;16.55;8.58;;;;;;;;;;1761811;81;21029;-65
2022/11/28 15:04:42;;;;;;;14.35;8.18;;;;;;;;;;1759819;81;20999;-66
2022/11/28 15:07:29;;;;;;;18.12;9.78;;;;;;;;;;1764548;81;21071;-65
2022/11/28 15:10:03;;;;;;;17.70;9.75;;;;;;;;;;1764598;81;21032;-65
2022/11/28 15:12:38;;;;;;;14.73;8.53;;;;;;;;;;1761334;81;21045;-66
2022/11/28 15:15:09;;;;;;;20.60;9.50;;;;;;;;;;1762770;81;21524;-66
2022/11/28 15:17:37;;;;;;;16.17;8.85;;;;;;;;;;1768280;81;20954;-65
2022/11/28 15:20:05;;;;;;;18.55;9.10;;;;;;;;;;1763332;81;21006;-64
2022/11/28 15:22:39;;;;;;;15.38;7.97;;;;;;;;;;1763360;80;21600;-64
2022/11/28 15:25:18;;;;;;;17.23;9.08;;;;;;;;;;1763296;81;21421;-65
2022/11/28 15:27:44;;;;;;;18.82;9.70;;;;;;;;;;1761773;80;21029;-64
2022/11/28 15:30:19;;;;;;;15.98;8.38;;;;;;;;;;1762349;81;21505;-66
2022/11/28 15:32:45;;;;;;;21.82;9.78;;;;;;;;;;1763347;81;21033;-66
2022/11/28 15:35:17;;;;;;;16.85;8.55;;;;;;;;;;1745574;80;21512;-66
2022/11/28 15:37:50;;;;;;;15.53;8.33;;;;;;;;;;1761910;81;21044;-66
2022/11/28 15:40:20;;;;;;;19.75;9.85;;;;;;;;;;1767214;80;21003;-66
2022/11/28 15:42:46;;;;;;;13.80;8.43;;;;;;;;;;1756860;79;21037;-66
2022/11/28 15:45:14;;;;;;;24.02;11.53;;;;;;;;;;1759638;81;21540;-67
2022/11/28 15:47:45;;;;;;;18.00;9.88;;;;;;;;;;1753092;81;21051;-66
2022/11/28 15:50:15;;;;;;;16.30;8.38;;;;;;;;;;1754970;81;21522;-66
2022/11/28 15:52:53;;;;;;;18.87;10.10;;;;;;;;;;1765640;79;21113;-66
2022/11/28 15:55:20;;;;;;;19.00;9.18;;;;;;;;;;1723624;80;21061;-66
2022/11/28 15:57:47;;;;;;;20.60;8.50;;;;;;;;;;1758926;80;21044;-66
2022/11/28 16:00:15;;;;;;;19.17;9.05;;;;;;;;;;1762883;79;21972;-66
2022/11/28 16:02:42;;;;;;;15.72;8.35;;;;;;;;;;1755359;81;21001;-67
2022/11/28 16:05:12;;;;;;;18.82;8.93;;;;;;;;;;1755050;81;21088;-67
2022/11/28 16:07:42;;;;;;;15.72;8.45;;;;;;;;;;1753249;79;21025;-67
2022/11/28 16:10:27;;;;;;;16.35;8.35;;;;;;;;;;1754965;79;21496;-66
2022/11/28 16:12:55;;;;;;;18.70;8.98;;;;;;;;;;1759660;79;21063;-66
2022/11/28 16:15:22;;;;;;;18.37;8.80;;;;;;;;;;1760196;80;21021;-66
2022/11/28 16:17:48;;;;;;;21.85;9.73;;;;;;;;;;1761082;81;21025;-67
2022/11/28 16:20:27;;;;;;;18.52;10.05;;;;;;;;;;1757743;81;21173;-65
2022/11/28 16:23:01;;;;;;;19.60;9.53;;;;;;;;;;1765696;79;21008;-66
2022/11/28 16:25:29;;;;;;;20.12;9.75;;;;;;;;;;1754386;80;21019;-65
2022/11/28 16:27:56;;;;;;;21.93;10.53;;;;;;;;;;1760614;81;21010;-66
2022/11/28 16:30:24;;;;;;;18.62;10.55;;;;;;;;;;1768969;79;21021;-66
2022/11/28 16:32:50;;;;;;;17.62;8.98;;;;;;;;;;1761945;79;21816;-65
2022/11/28 16:35:26;;;;;;;19.40;9.28;;;;;;;;;;1759341;81;20977;-66
2022/11/28 16:37:52;;;;;;;19.55;9.18;;;;;;;;;;1765065;79;21009;-66
2022/11/28 16:40:20;;;;;;;17.67;8.53;;;;;;;;;;1756680;80;21021;-65
2022/11/28 16:42:52;;;;;;;17.95;8.83;;;;;;;;;;1757382;79;21072;-67
2022/11/28 16:45:28;;;;;;;22.65;9.20;;;;;;;;;;1761491;79;21599;-66
2022/11/28 16:47:56;;;;;;;15.53;7.05;;;;;;;;;;1763635;79;21001;-66
2022/11/28 16:50:22;;;;;;;17.87;7.87;;;;;;;;;;1757468;79;21528;-66
2022/11/28 16:52:49;;;;;;;16.87;8.68;;;;;;;;;;1761999;79;20996;-66
2022/11/28 16:55:30;;;;;;;19.55;8.98;;;;;;;;;;1764765;79;21582;-68
2022/11/28 16:58:06;;;;;;;25.82;9.73;;;;;;;;;;1770636;79;21012;-66
2022/11/28 17:00:29;;;;;;;23.10;10.53;;;;;;;;;;1773750;79;21068;-66
2022/11/28 17:02:56;;;;;;;21.33;9.95;;;;;;;;;;1766465;79;21028;-66
2022/11/28 17:05:22;;;;;;;22.70;8.88;;;;;;;;;;1766495;80;21053;-65
2022/11/28 17:07:48;;;;;;;22.62;9.75;;;;;;;;;;1768134;80;21085;-65
2022/11/28 17:10:15;;;;;;;20.15;9.78;;;;;;;;;;1769629;80;21028;-65
2022/11/28 17:12:41;;;;;;;18.48;8.90;;;;;;;;;;1771816;79;21029;-65
2022/11/28 17:15:14;;;;;;;23.10;10.03;;;;;;;;;;1772396;80;20993;-65
2022/11/28 17:17:40;;;;;;;18.07;8.43;;;;;;;;;;1771993;80;21068;-65
2022/11/28 17:20:08;;;;;;;22.07;9.65;;;;;;;;;;1765744;80;20978;-65
2022/11/28 17:22:36;;;;;;;16.02;7.67;;;;;;;;;;1769497;79;21585;-65
2022/11/28 17:25:04;;;;;;;20.62;9.50;;;;;;;;;;1770516;79;21064;-66
2022/11/28 17:27:31;;;;;;;16.70;8.40;;;;;;;;;;1768293;80;21515;-66
2022/11/28 17:29:57;;;;;;;19.87;8.25;;;;;;;;;;1766147;80;21044;-66
2022/11/28 17:32:23;;;;;;;15.25;7.50;;;;;;;;;;1772297;80;21058;-65
2022/11/28 17:34:49;;;;;;;16.52;8.65;;;;;;;;;;1765969;80;21457;-66
2022/11/28 17:37:15;;;;;;;19.62;9.28;;;;;;;;;;1769200;80;21005;-66
2022/11/28 17:40:31;;;;;;;15.83;8.28;;;;;;;;;;1765786;80;21001;-65
2022/11/28 17:42:09;;;;;;;15.38;7.53;;;;;;;;;;1762269;80;21022;-66
2022/11/28 17:44:37;;;;;;;15.40;7.92;;;;;;;;;;1726267;82;21099;-66
2022/11/28 17:47:04;;;;;;;14.60;8.03;;;;;;;;;;1711728;82;21331;-67
2022/11/28 17:49:31;;;;;;;20.92;8.93;;;;;;;;;;1715268;82;21552;-66
2022/11/28 17:51:57;;;;;;;18.23;7.83;;;;;;;;;;1769063;80;21020;-66
2022/11/28 17:54:24;;;;;;;19.50;9.00;;;;;;;;;;1771136;80;21001;-66
2022/11/28 17:56:51;;;;;;;16.17;7.97;;;;;;;;;;1770016;79;21076;-66
2022/11/28 17:59:18;;;;;;;19.10;8.73;;;;;;;;;;1768851;81;21023;-66
2022/11/28 18:01:45;;;;;;;17.80;7.80;;;;;;;;;;1764431;80;21008;-66
2022/11/28 18:04:11;;;;;;;16.90;8.03;;;;;;;;;;1760305;79;20991;-66
2022/11/28 18:06:37;;;;;;;19.98;10.05;;;;;;;;;;1759521;79;21025;-67
2022/11/28 18:09:03;;;;;;;14.90;7.53;;;;;;;;;;1765820;79;20950;-67
2022/11/28 18:11:30;;;;;;;16.30;7.40;;;;;;;;;;1760745;81;21001;-67
2022/11/28 18:13:56;;;;;;;14.58;6.85;;;;;;;;;;1756833;79;21056;-66
2022/11/28 18:16:24;;;;;;;16.67;7.78;;;;;;;;;;1758807;81;21077;-66
2022/11/28 18:18:51;;;;;;;15.00;7.35;;;;;;;;;;1765122;80;20989;-67
2022/11/28 18:21:17;;;;;;;14.33;7.37;;;;;;;;;;1763389;81;21067;-66
2022/11/28 18:23:44;;;;;;;14.25;7.47;;;;;;;;;;1755549;81;21023;-66
2022/11/28 18:26:11;;;;;;;16.10;7.37;;;;;;;;;;1762832;81;21037;-66
2022/11/28 18:28:38;;;;;;;13.68;7.42;;;;;;;;;;1764841;79;20969;-66
2022/11/28 18:31:06;;;;;;;14.47;7.03;;;;;;;;;;1763480;79;20993;-66
2022/11/28 18:33:33;;;;;;;14.30;7.10;;;;;;;;;;1762843;80;21029;-66
2022/11/28 18:36:09;;;;;;;16.20;7.53;;;;;;;;;;1760850;80;21045;-66
2022/11/28 18:38:35;;;;;;;12.30;6.75;;;;;;;;;;1759066;81;21060;-66
2022/11/28 18:41:04;;;;;;;13.75;7.20;;;;;;;;;;1756223;79;21981;-66
2022/11/28 18:43:31;;;;;;;12.55;6.65;;;;;;;;;;1773452;80;21034;-66
2022/11/28 18:46:04;;;;;;;14.47;7.00;;;;;;;;;;1760419;80;21087;-66
2022/11/28 18:48:32;;;;;;;15.85;7.80;;;;;;;;;;1758251;81;21536;-66
2022/11/28 18:50:58;;;;;;;15.08;8.33;;;;;;;;;;1761862;81;21040;-66
2022/11/28 18:53:24;;;;;;;13.35;6.67;;;;;;;;;;1757710;80;21039;-66
2022/11/28 18:56:00;;;;;;;14.85;6.72;;;;;;;;;;1756382;81;21499;-66
2022/11/28 18:58:26;;;;;;;16.60;7.80;;;;;;;;;;1759416;80;20962;-66
2022/11/28 19:00:53;;;;;;;16.27;7.70;;;;;;;;;;1761259;80;21005;-67
2022/11/28 19:03:19;;;;;;;14.20;7.90;;;;;;;;;;1754161;81;20982;-66
2022/11/28 19:05:46;;;;;;;13.88;6.80;;;;;;;;;;1761956;81;21002;-66
2022/11/28 19:08:14;;;;;;;11.68;6.50;;;;;;;;;;1761187;81;20980;-66
2022/11/28 19:10:41;;;;;;;18.00;8.30;;;;;;;;;;1760176;81;21090;-67
2022/11/28 19:13:07;;;;;;;14.93;7.58;;;;;;;;;;1755258;80;21031;-67
2022/11/28 19:15:33;;;;;;;12.68;6.05;;;;;;;;;;1760153;81;21490;-67
2022/11/28 19:17:59;;;;;;;13.25;7.22;;;;;;;;;;1746706;81;21528;-66
2022/11/28 19:20:25;;;;;;;20.12;9.53;;;;;;;;;;1761582;80;21006;-66
2022/11/28 19:22:51;;;;;;;16.20;8.08;;;;;;;;;;1761238;81;21507;-66
2022/11/28 19:25:17;;;;;;;15.43;7.12;;;;;;;;;;1763686;81;20946;-67
2022/11/28 19:27:44;;;;;;;20.55;10.08;;;;;;;;;;1761622;80;21076;-67
2022/11/28 19:30:12;;;;;;;17.73;8.55;;;;;;;;;;1763410;81;21049;-67
2022/11/28 19:32:38;;;;;;;19.27;8.28;;;;;;;;;;1762405;81;21538;-67
2022/11/28 19:35:05;;;;;;;16.48;7.97;;;;;;;;;;1759461;81;21673;-66
2022/11/28 19:37:32;;;;;;;19.25;8.93;;;;;;;;;;1764847;81;21003;-67
2022/11/28 19:39:58;;;;;;;14.43;8.28;;;;;;;;;;1763213;80;22178;-66
2022/11/28 19:42:24;;;;;;;13.28;7.22;;;;;;;;;;1762393;80;21043;-66
2022/11/28 19:44:50;;;;;;;14.30;6.70;;;;;;;;;;1763983;80;21088;-66
2022/11/28 20:20:44;;;;;;;11.12;6.25;;;;;;;;;;1827870;77;22129;-63
2022/11/28 20:23:10;;;;;;;12.68;5.97;;;;;;;;;;1791227;80;21005;-62
2022/11/28 20:25:37;;;;;;;12.28;6.45;;;;;;;;;;1763947;80;21005;-62
2022/11/28 20:28:04;;;;;;;10.23;4.97;;;;;;;;;;1752887;82;21052;-62
2022/11/28 20:30:31;;;;;;;12.10;6.80;;;;;;;;;;1774966;80;21512;-62
2022/11/28 20:32:57;;;;;;;8.70;4.90;;;;;;;;;;1789512;80;21068;-64
2022/11/28 20:35:23;;;;;;;10.95;5.25;;;;;;;;;;1772672;80;21068;-63
2022/11/28 20:37:49;;;;;;;10.65;6.37;;;;;;;;;;1775205;80;21096;-63
2022/11/28 20:40:16;;;;;;;12.43;6.83;;;;;;;;;;1764319;80;21562;-64
2022/11/28 20:42:42;;;;;;;13.03;6.65;;;;;;;;;;1760401;81;20990;-63
2022/11/28 20:45:09;;;;;;;10.65;5.80;;;;;;;;;;1772371;80;21013;-62
2022/11/28 20:47:36;;;;;;;11.53;6.00;;;;;;;;;;1768951;80;21548;-63
2022/11/28 20:50:02;;;;;;;9.55;4.87;;;;;;;;;;1772414;80;21145;-62
2022/11/28 20:52:29;;;;;;;12.05;6.42;;;;;;;;;;1791054;79;21013;-63
2022/11/28 20:54:55;;;;;;;14.15;7.75;;;;;;;;;;1768008;80;21114;-62